createdAt,value
2019-06-01T00:00:24.229Z,12.70
2019-06-01T00:02:55.764Z,12.70
2019-06-01T00:05:21.233Z,12.80
2019-06-01T00:07:48.998Z,12.70
2019-06-01T00:10:16.689Z,12.60
2019-06-01T00:12:47.542Z,12.50
2019-06-01T00:15:15.459Z,12.50
2019-06-01T00:17:43.887Z,12.60
2019-06-01T00:20:11.889Z,12.50
2019-06-01T00:22:39.519Z,12.40
2019-06-01T00:25:07.342Z,12.30
2019-06-01T00:27:34.982Z,12.30
2019-06-01T00:30:02.638Z,12.10
2019-06-01T00:32:31.248Z,12.00
2019-06-01T00:34:58.903Z,12.10
2019-06-01T00:37:26.535Z,12.10
2019-06-01T00:39:54.193Z,12.10
2019-06-01T00:44:50.359Z,12.00
2019-06-01T00:47:18.123Z,12.00
2019-06-01T00:49:46.729Z,11.90
2019-06-01T00:52:14.394Z,11.70
2019-06-01T00:54:43.086Z,11.80
2019-06-01T00:57:10.859Z,11.80
2019-06-01T00:59:38.511Z,11.90
2019-06-01T01:02:06.141Z,11.90
2019-06-01T01:04:33.811Z,11.90
2019-06-01T01:07:01.439Z,11.90
2019-06-01T01:09:29.091Z,11.90
2019-06-01T01:11:56.730Z,11.80
2019-06-01T01:14:24.387Z,11.80
2019-06-01T01:16:52.022Z,11.80
2019-06-01T01:19:19.806Z,11.80
2019-06-01T01:21:48.424Z,11.70
2019-06-01T01:24:16.075Z,11.70
2019-06-01T01:26:43.735Z,11.60
2019-06-01T01:29:11.382Z,11.60
2019-06-01T01:31:39.023Z,11.60
2019-06-01T01:36:34.023Z,11.50
2019-06-01T01:39:01.667Z,11.50
2019-06-01T01:41:29.319Z,11.50
2019-06-01T01:43:56.953Z,11.50
2019-06-01T01:46:24.603Z,11.50
2019-06-01T01:48:52.235Z,11.40
2019-06-01T01:51:19.883Z,11.30
2019-06-01T01:56:14.898Z,11.00
2019-06-01T01:58:42.546Z,11.20
2019-06-01T02:01:22.345Z,11.00
2019-06-01T02:03:39.546Z,11.00
2019-06-01T02:06:07.270Z,11.10
2019-06-01T02:08:34.979Z,11.10
2019-06-01T02:11:02.648Z,11.10
2019-06-01T02:13:30.281Z,11.00
2019-06-01T02:15:58.257Z,11.00
2019-06-01T02:18:26.051Z,11.10
2019-06-01T02:20:54.358Z,11.00
2019-06-01T02:25:49.486Z,10.70
2019-06-01T02:28:17.123Z,10.70
2019-06-01T02:30:45.234Z,10.70
2019-06-01T02:33:12.865Z,10.70
2019-06-01T02:35:40.521Z,10.60
2019-06-01T02:38:08.157Z,10.50
2019-06-01T02:40:36.562Z,10.40
2019-06-01T02:43:06.746Z,10.40
2019-06-01T02:45:33.832Z,10.30
2019-06-01T02:48:01.799Z,10.20
2019-06-01T02:50:30.994Z,10.20
2019-06-01T02:52:59.428Z,10.10
2019-06-01T02:55:27.140Z,10.10
2019-06-01T02:57:55.920Z,10.00
2019-06-01T03:00:41.783Z,10.00
2019-06-01T03:03:09.427Z,10.00
2019-06-01T03:05:37.143Z,10.10
2019-06-01T03:08:05.481Z,10.30
2019-06-01T03:10:33.337Z,10.20
2019-06-01T03:13:02.101Z,10.30
2019-06-01T03:15:31.348Z,10.30
2019-06-01T03:18:01.530Z,10.30
2019-06-01T03:20:30.222Z,10.40
2019-06-01T03:22:58.132Z,10.40
2019-06-01T03:25:27.323Z,10.20
2019-06-01T03:27:56.623Z,10.20
2019-06-01T03:30:45.541Z,10.10
2019-06-01T03:33:13.829Z,10.20
2019-06-01T03:35:41.217Z,10.10
2019-06-01T03:38:09.271Z,10.00
2019-06-01T03:45:32.056Z,9.80
2019-06-01T03:48:00.506Z,9.90
2019-06-01T03:50:28.211Z,10.00
2019-06-01T03:52:55.853Z,10.00
2019-06-01T03:55:23.475Z,10.20
2019-06-01T03:57:51.143Z,10.20
2019-06-01T04:00:18.847Z,10.20
2019-06-01T04:02:46.490Z,10.20
2019-06-01T04:05:14.121Z,10.20
2019-06-01T04:07:41.770Z,10.30
2019-06-01T04:10:10.002Z,10.40
2019-06-01T04:12:37.847Z,10.40
2019-06-01T04:15:10.100Z,10.30
2019-06-01T04:17:34.959Z,10.20
2019-06-01T04:20:03.867Z,10.20
2019-06-01T04:22:31.594Z,10.20
2019-06-01T04:24:59.303Z,10.40
2019-06-01T04:27:26.952Z,10.40
2019-06-01T04:29:54.579Z,10.30
2019-06-01T04:32:22.231Z,10.50
2019-06-01T04:34:49.872Z,10.60
2019-06-01T04:37:17.529Z,10.60
2019-06-01T04:39:45.176Z,10.60
2019-06-01T04:42:13.928Z,10.60
2019-06-01T04:44:41.695Z,10.70
2019-06-01T04:47:10.714Z,10.80
2019-06-01T04:49:38.493Z,10.90
2019-06-01T04:52:06.754Z,11.00
2019-06-01T04:54:34.505Z,11.00
2019-06-01T04:57:02.155Z,11.10
2019-06-01T04:59:29.792Z,11.20
2019-06-01T05:01:57.439Z,11.40
2019-06-01T05:04:25.080Z,11.50
2019-06-01T05:06:52.728Z,11.60
2019-06-01T05:09:20.360Z,11.70
2019-06-01T05:11:48.004Z,11.80
2019-06-01T05:14:16.531Z,11.90
2019-06-01T05:16:44.338Z,12.10
2019-06-01T05:19:12.260Z,12.20
2019-06-01T05:24:08.723Z,12.40
2019-06-01T05:26:36.486Z,12.50
2019-06-01T05:31:31.510Z,12.80
2019-06-01T05:33:59.162Z,12.90
2019-06-01T05:36:26.836Z,13.00
2019-06-01T05:38:54.483Z,13.10
2019-06-01T05:43:49.491Z,13.50
2019-06-01T05:46:18.071Z,13.60
2019-06-01T05:48:45.756Z,13.80
2019-06-01T05:51:15.568Z,13.90
2019-06-01T05:53:42.780Z,14.10
2019-06-01T05:56:10.563Z,14.20
2019-06-01T05:58:38.253Z,14.40
2019-06-01T06:01:05.912Z,14.50
2019-06-01T06:03:40.304Z,14.70
2019-06-01T06:06:02.989Z,14.80
2019-06-01T06:13:25.504Z,15.30
2019-06-01T06:15:53.152Z,15.40
2019-06-01T06:18:21.755Z,15.50
2019-06-01T06:20:49.616Z,15.70
2019-06-01T06:23:18.398Z,15.90
2019-06-01T06:25:46.183Z,16.10
2019-06-01T06:28:14.616Z,16.20
2019-06-01T06:30:42.284Z,16.40
2019-06-01T06:33:09.958Z,16.40
2019-06-01T06:35:37.644Z,16.60
2019-06-01T06:38:05.294Z,16.80
2019-06-01T06:43:00.322Z,17.20
2019-06-01T06:45:27.964Z,17.20
2019-06-01T06:47:55.695Z,17.20
2019-06-01T06:50:23.633Z,17.40
2019-06-01T06:52:51.382Z,17.60
2019-06-01T06:55:19.856Z,17.80
2019-06-01T06:57:47.554Z,18.00
2019-06-01T07:00:16.381Z,18.20
2019-06-01T07:02:44.108Z,18.40
2019-06-01T07:05:11.815Z,18.50
2019-06-01T07:15:01.653Z,19.00
2019-06-01T07:17:29.355Z,19.00
2019-06-01T07:19:58.016Z,19.30
2019-06-01T07:24:53.604Z,19.40
2019-06-01T07:27:22.024Z,19.40
2019-06-01T07:29:49.747Z,19.50
2019-06-01T07:32:17.386Z,19.80
2019-06-01T07:34:45.054Z,20.00
2019-06-01T07:37:12.777Z,19.90
2019-06-01T07:39:40.504Z,20.30
2019-06-01T07:42:08.567Z,20.40
2019-06-01T07:44:36.303Z,20.60
2019-06-01T07:47:03.972Z,20.70
2019-06-01T07:49:31.695Z,20.90
2019-06-01T07:52:11.161Z,21.20
2019-06-01T07:54:28.734Z,21.50
2019-06-01T07:56:56.456Z,21.70
2019-06-01T07:59:24.503Z,21.50
2019-06-01T08:01:53.484Z,21.70
2019-06-01T08:04:22.885Z,22.10
2019-06-01T08:06:50.590Z,22.20
2019-06-01T08:09:18.279Z,22.40
2019-06-01T08:11:45.923Z,22.60
2019-06-01T08:14:13.659Z,22.70
2019-06-01T08:16:41.320Z,22.60
2019-06-01T08:19:08.996Z,22.50
2019-06-01T08:21:36.711Z,22.80
2019-06-01T08:26:32.672Z,23.30
2019-06-01T08:29:00.626Z,23.30
2019-06-01T08:31:28.713Z,23.50
2019-06-01T08:33:56.403Z,23.70
2019-06-01T08:38:52.965Z,23.60
2019-06-01T08:41:20.611Z,23.60
2019-06-01T08:43:48.273Z,23.60
2019-06-01T08:46:15.940Z,23.50
2019-06-01T08:48:43.589Z,23.80
2019-06-01T08:51:11.251Z,24.00
2019-06-01T08:53:38.912Z,24.00
2019-06-01T08:56:06.599Z,24.10
2019-06-01T08:58:34.638Z,23.70
2019-06-01T09:01:02.413Z,23.90
2019-06-01T09:03:30.103Z,24.20
2019-06-01T09:05:57.758Z,24.30
2019-06-01T09:08:26.013Z,24.50
2019-06-01T09:10:54.701Z,24.80
2019-06-01T09:15:49.788Z,24.90
2019-06-01T09:18:17.430Z,24.40
2019-06-01T09:20:45.091Z,24.80
2019-06-01T09:23:13.720Z,24.90
2019-06-01T09:25:41.351Z,25.30
2019-06-01T09:28:08.997Z,25.30
2019-06-01T09:30:36.687Z,24.70
2019-06-01T09:33:04.337Z,25.10
2019-06-01T09:35:49.038Z,25.20
2019-06-01T09:38:01.479Z,25.40
2019-06-01T09:40:30.383Z,25.80
2019-06-01T09:42:58.500Z,25.90
2019-06-01T09:45:26.164Z,25.50
2019-06-01T09:47:53.832Z,25.50
2019-06-01T09:50:21.488Z,26.00
2019-06-01T09:52:49.152Z,26.10
2019-06-01T09:55:16.963Z,25.90
2019-06-01T09:57:44.612Z,25.60
2019-06-01T10:00:12.462Z,25.90
2019-06-01T10:02:40.132Z,25.90
2019-06-01T10:05:07.930Z,26.30
2019-06-01T10:07:36.912Z,26.40
2019-06-01T10:10:06.035Z,26.00
2019-06-01T10:12:33.914Z,26.30
2019-06-01T10:15:01.848Z,25.80
2019-06-01T10:17:30.522Z,26.10
2019-06-01T10:19:58.440Z,26.10
2019-06-01T10:22:26.093Z,26.00
2019-06-01T10:27:21.120Z,26.50
2019-06-01T10:32:16.177Z,27.40
2019-06-01T10:34:43.846Z,27.70
2019-06-01T10:37:11.500Z,27.60
2019-06-01T10:42:07.207Z,28.40
2019-06-01T10:44:39.814Z,28.60
2019-06-01T10:47:04.263Z,28.70
2019-06-01T10:49:31.919Z,28.30
2019-06-01T10:51:59.586Z,28.10
2019-06-01T10:54:27.247Z,27.80
2019-06-01T10:56:54.905Z,28.30
2019-06-01T10:59:22.557Z,28.50
2019-06-01T11:01:50.236Z,28.70
2019-06-01T11:04:17.968Z,28.80
2019-06-01T11:06:48.692Z,29.10
2019-06-01T11:09:15.038Z,28.20
2019-06-01T11:11:43.186Z,28.60
2019-06-01T11:14:10.929Z,28.90
2019-06-01T11:16:39.497Z,28.80
2019-06-01T11:19:07.308Z,29.50
2019-06-01T11:21:35.551Z,29.70
2019-06-01T11:24:03.326Z,29.50
2019-06-01T11:26:30.975Z,28.60
2019-06-01T11:28:58.625Z,28.40
2019-06-01T11:31:26.295Z,28.30
2019-06-01T11:33:53.944Z,28.60
2019-06-01T11:36:21.629Z,28.30
2019-06-01T11:38:49.284Z,28.40
2019-06-01T11:41:18.643Z,28.90
2019-06-01T11:43:46.317Z,29.40
2019-06-01T11:46:13.975Z,28.90
2019-06-01T11:51:10.123Z,28.20
2019-06-01T11:53:39.767Z,28.40
2019-06-01T11:56:07.160Z,28.90
2019-06-01T11:58:35.133Z,29.10
2019-06-01T12:01:02.899Z,30.20
2019-06-01T12:03:30.619Z,30.90
2019-06-01T12:10:53.095Z,31.60
2019-06-01T12:13:20.746Z,32.10
2019-06-01T12:15:48.429Z,30.40
2019-06-01T12:18:16.158Z,30.20
2019-06-01T12:20:44.877Z,29.60
2019-06-01T12:23:12.640Z,31.10
2019-06-01T12:25:40.278Z,30.80
2019-06-01T12:28:07.949Z,30.30
2019-06-01T12:30:35.589Z,29.70
2019-06-01T12:33:03.262Z,29.90
2019-06-01T12:35:30.909Z,30.00
2019-06-01T12:40:27.611Z,31.50
2019-06-01T12:42:56.236Z,31.40
2019-06-01T12:45:23.896Z,33.20
2019-06-01T12:47:55.166Z,33.30
2019-06-01T12:50:21.017Z,31.50
2019-06-01T12:52:48.713Z,31.60
2019-06-01T12:55:16.363Z,32.20
2019-06-01T13:00:14.088Z,33.90
2019-06-01T13:02:46.208Z,33.90
2019-06-01T13:05:11.383Z,31.50
2019-06-01T13:07:52.124Z,32.30
2019-06-01T13:10:08.688Z,34.40
2019-06-01T13:12:36.362Z,35.50
2019-06-01T13:17:31.393Z,36.70
2019-06-01T13:19:59.042Z,36.70
2019-06-01T13:22:26.707Z,37.10
2019-06-01T13:24:54.359Z,37.20
2019-06-01T13:27:22.021Z,37.20
2019-06-01T13:29:50.202Z,36.80
2019-06-01T13:32:18.016Z,36.90
2019-06-01T13:34:47.036Z,36.90
2019-06-01T13:37:14.882Z,37.10
2019-06-01T13:39:42.945Z,35.00
2019-06-01T13:42:10.709Z,34.60
2019-06-01T13:44:38.444Z,33.90
2019-06-01T13:47:06.080Z,32.70
2019-06-01T13:49:33.774Z,32.90
2019-06-01T13:52:01.495Z,34.70
2019-06-01T13:54:29.134Z,36.00
2019-06-01T13:56:56.782Z,37.00
2019-06-01T13:59:24.436Z,35.90
2019-06-01T14:01:53.223Z,36.80
2019-06-01T14:04:20.942Z,35.10
2019-06-01T14:06:48.991Z,33.60
2019-06-01T14:09:16.819Z,32.60
2019-06-01T14:11:45.245Z,32.70
2019-06-01T14:14:13.001Z,31.60
2019-06-01T14:19:08.030Z,30.10
2019-06-01T14:21:35.667Z,31.00
2019-06-01T14:24:03.508Z,32.10
2019-06-01T14:26:31.225Z,32.60
2019-06-01T14:28:58.885Z,32.50
2019-06-01T14:31:26.535Z,32.50
2019-06-01T14:36:22.597Z,34.90
2019-06-01T14:38:52.986Z,34.70
2019-06-01T14:41:19.648Z,34.30
2019-06-01T14:43:47.311Z,34.30
2019-06-01T14:46:14.968Z,34.40
2019-06-01T14:48:42.632Z,34.70
2019-06-01T14:51:10.288Z,35.40
2019-06-01T14:53:37.957Z,36.50
2019-06-01T14:56:05.621Z,36.10
2019-06-01T14:58:33.364Z,36.10
2019-06-01T15:01:01.018Z,36.80
2019-06-01T15:03:28.686Z,36.80
2019-06-01T15:05:56.574Z,36.60
2019-06-01T15:08:24.346Z,36.70
2019-06-01T15:10:53.446Z,36.50
2019-06-01T15:13:21.406Z,36.60
2019-06-01T15:15:49.460Z,36.20
2019-06-01T15:18:17.459Z,35.50
2019-06-01T15:20:45.099Z,33.10
2019-06-01T15:23:12.768Z,32.20
2019-06-01T15:25:40.483Z,32.30
2019-06-01T15:28:08.135Z,33.70
2019-06-01T15:30:35.866Z,33.80
2019-06-01T15:33:03.522Z,34.30
2019-06-01T15:35:31.245Z,34.40
2019-06-01T15:38:02.071Z,33.90
2019-06-01T15:40:28.349Z,33.50
2019-06-01T15:42:57.228Z,32.70
2019-06-01T15:45:25.076Z,32.50
2019-06-01T15:47:53.308Z,33.10
2019-06-01T15:50:21.048Z,33.20
2019-06-01T15:52:48.703Z,33.10
2019-06-01T15:55:16.454Z,31.90
2019-06-01T15:57:44.111Z,33.30
2019-06-01T16:00:13.232Z,33.20
2019-06-01T16:02:40.887Z,32.90
2019-06-01T16:05:08.727Z,33.10
2019-06-01T16:07:36.375Z,33.70
2019-06-01T16:10:08.047Z,34.40
2019-06-01T16:12:34.952Z,34.60
2019-06-01T16:15:03.894Z,34.50
2019-06-01T16:17:31.602Z,33.90
2019-06-01T16:20:00.027Z,33.80
2019-06-01T16:22:27.788Z,34.40
2019-06-01T16:24:56.212Z,34.10
2019-06-01T16:27:23.890Z,34.10
2019-06-01T16:29:51.543Z,34.10
2019-06-01T16:32:19.192Z,34.00
2019-06-01T16:34:46.843Z,33.70
2019-06-01T16:37:14.489Z,33.70
2019-06-01T16:39:57.951Z,33.40
2019-06-01T16:42:11.511Z,33.50
2019-06-01T16:44:39.171Z,33.50
2019-06-01T16:47:06.844Z,33.70
2019-06-01T16:49:34.506Z,32.90
2019-06-01T16:52:03.280Z,32.70
2019-06-01T16:54:31.112Z,32.30
2019-06-01T16:56:58.831Z,31.70
2019-06-01T16:59:26.502Z,31.20
2019-06-01T17:01:54.154Z,30.70
2019-06-01T17:04:21.876Z,30.30
2019-06-01T17:06:49.612Z,29.90
2019-06-01T17:11:44.636Z,29.00
2019-06-01T17:14:12.356Z,28.90
2019-06-01T17:16:40.007Z,28.40
2019-06-01T17:19:07.654Z,28.10
2019-06-01T17:21:36.303Z,28.00
2019-06-01T17:24:05.952Z,27.30
2019-06-01T17:26:33.659Z,27.20
2019-06-01T17:29:02.145Z,27.20
2019-06-01T17:33:58.341Z,27.00
2019-06-01T17:36:26.851Z,26.80
2019-06-01T17:38:54.496Z,26.40
2019-06-01T17:41:22.180Z,26.50
2019-06-01T17:43:49.913Z,26.40
2019-06-01T17:46:17.559Z,26.40
2019-06-01T17:48:45.281Z,26.30
2019-06-01T17:51:12.951Z,26.30
2019-06-01T17:53:40.603Z,26.20
2019-06-01T17:58:36.032Z,26.00
2019-06-01T18:01:04.295Z,25.70
2019-06-01T18:03:33.135Z,25.60
2019-06-01T18:06:01.737Z,25.60
2019-06-01T18:08:29.526Z,25.40
2019-06-01T18:10:57.272Z,25.00
2019-06-01T18:13:24.915Z,24.60
2019-06-01T18:15:52.559Z,24.40
2019-06-01T18:18:20.258Z,24.20
2019-06-01T18:20:47.897Z,24.10
2019-06-01T18:25:42.993Z,24.00
2019-06-01T18:28:18.246Z,23.70
2019-06-01T18:30:40.083Z,23.40
2019-06-01T18:33:08.928Z,23.40
2019-06-01T18:38:04.134Z,22.90
2019-06-01T18:43:00.655Z,22.40
2019-06-01T18:45:28.412Z,22.20
2019-06-01T18:47:56.133Z,22.30
2019-06-01T18:52:51.253Z,22.00
2019-06-01T18:57:47.845Z,21.80
2019-06-01T19:00:15.775Z,21.70
2019-06-01T19:02:44.472Z,21.70
2019-06-01T19:05:13.206Z,21.70
2019-06-01T19:07:41.092Z,21.70
2019-06-01T19:10:09.458Z,21.70
2019-06-01T19:12:37.128Z,21.70
2019-06-01T19:15:21.853Z,21.80
2019-06-01T19:17:37.523Z,21.70
2019-06-01T19:22:32.841Z,21.30
2019-06-01T19:25:00.466Z,21.30
2019-06-01T19:27:28.119Z,21.30
2019-06-01T19:29:56.567Z,21.20
2019-06-01T19:32:24.230Z,21.20
2019-06-01T19:34:51.876Z,21.00
2019-06-01T19:37:21.078Z,20.90
2019-06-01T19:39:48.864Z,20.70
2019-06-01T19:42:17.469Z,20.70
2019-06-01T19:44:45.223Z,20.60
2019-06-01T19:47:13.926Z,20.50
2019-06-01T19:49:43.876Z,20.40
2019-06-01T19:52:10.971Z,20.40
2019-06-01T19:54:38.614Z,20.20
2019-06-01T19:57:06.358Z,20.20
2019-06-01T19:59:33.986Z,20.00
2019-06-01T20:02:01.643Z,20.00
2019-06-01T20:04:29.331Z,19.90
2019-06-01T20:06:56.988Z,19.80
2019-06-01T20:09:24.674Z,19.70
2019-06-01T20:14:22.552Z,19.50
2019-06-01T20:16:50.327Z,19.40
2019-06-01T20:19:18.093Z,19.30
2019-06-01T20:21:46.671Z,19.20
2019-06-01T20:24:15.269Z,19.10
2019-06-01T20:29:12.772Z,18.80
2019-06-01T20:31:41.607Z,18.80
2019-06-01T20:34:09.254Z,18.80
2019-06-01T20:36:36.882Z,18.70
2019-06-01T20:39:05.904Z,18.70
2019-06-01T20:41:33.555Z,18.60
2019-06-01T20:44:01.203Z,18.50
2019-06-01T20:46:28.839Z,18.40
2019-06-01T20:48:56.503Z,18.40
2019-06-01T20:51:27.682Z,18.30
2019-06-01T20:56:21.482Z,18.00
2019-06-01T20:58:49.203Z,17.80
2019-06-01T21:01:17.638Z,17.80
2019-06-01T21:03:45.428Z,17.60
2019-06-01T21:06:13.906Z,17.80
2019-06-01T21:08:41.616Z,17.80
2019-06-01T21:11:09.256Z,17.80
2019-06-01T21:13:36.903Z,17.70
2019-06-01T21:16:04.544Z,17.60
2019-06-01T21:18:32.203Z,17.60
2019-06-01T21:20:59.843Z,17.50
2019-06-01T21:23:27.487Z,17.50
2019-06-01T21:25:55.145Z,17.40
2019-06-01T21:28:23.854Z,17.30
2019-06-01T21:33:19.864Z,17.20
2019-06-01T21:35:47.910Z,17.20
2019-06-01T21:38:15.571Z,17.20
2019-06-01T21:40:43.206Z,17.10
2019-06-01T21:43:23.641Z,17.00
2019-06-01T21:45:40.230Z,17.00
2019-06-01T21:48:07.883Z,16.80
2019-06-01T21:55:30.259Z,16.60
2019-06-01T21:57:57.916Z,16.60
2019-06-01T22:02:52.988Z,16.30
2019-06-01T22:05:20.869Z,16.30
2019-06-01T22:10:17.033Z,16.10
2019-06-01T22:12:44.711Z,16.20
2019-06-01T22:15:12.358Z,16.10
2019-06-01T22:17:39.994Z,16.20
2019-06-01T22:20:07.659Z,16.10
2019-06-01T22:22:35.295Z,16.10
2019-06-01T22:25:03.421Z,16.10
2019-06-01T22:27:31.047Z,15.90
2019-06-01T22:29:58.704Z,15.80
2019-06-01T22:32:29.573Z,15.80
2019-06-01T22:34:55.728Z,15.80
2019-06-01T22:37:23.776Z,15.80
2019-06-01T22:39:51.474Z,15.70
2019-06-01T22:42:19.827Z,15.60
2019-06-01T22:44:47.559Z,15.50
2019-06-01T22:47:15.191Z,15.50
2019-06-01T22:49:42.838Z,15.40
2019-06-01T22:52:10.506Z,15.40
2019-06-01T22:54:38.151Z,15.30
2019-06-01T22:57:05.791Z,15.30
2019-06-01T22:59:33.443Z,15.30
2019-06-01T23:02:01.086Z,15.30
2019-06-01T23:04:29.328Z,15.30
2019-06-01T23:06:57.046Z,15.20
2019-06-01T23:09:25.588Z,15.20
2019-06-01T23:11:53.361Z,15.10
2019-06-01T23:14:21.349Z,15.00
2019-06-01T23:16:49.031Z,15.00
2019-06-01T23:19:16.684Z,15.10
2019-06-01T23:21:44.321Z,14.90
2019-06-01T23:24:11.972Z,15.00
2019-06-01T23:26:39.618Z,14.90
2019-06-01T23:29:07.254Z,14.90
2019-06-01T23:31:35.859Z,14.70
2019-06-01T23:34:03.533Z,14.70
2019-06-01T23:36:31.236Z,14.70
2019-06-01T23:38:58.859Z,14.70
2019-06-01T23:41:26.650Z,14.70
2019-06-01T23:44:10.521Z,14.70
2019-06-01T23:46:24.886Z,14.70
2019-06-01T23:48:52.607Z,14.60
2019-06-01T23:51:20.263Z,14.60
2019-06-01T23:53:47.904Z,14.50
2019-06-01T23:56:15.546Z,14.40
2019-06-01T23:58:43.183Z,14.30
